Time,TemperatureF,DewpointF,PressureIn,WindDirection,WindDirectionDegrees,WindSpeedMPH,WindSpeedGustMPH,Humidity,HourlyPrecipIn,Conditions,Clouds,dailyrainin,SoftwareType,DateUTC
2013-07-08 00:08:00,72.1,71.5,29.90,SSW,202,1.1,-999.0,98,-99.99,,,0.00,Acu-Link.com,2013-07-08 04:08:00,
2013-07-08 00:23:00,72.1,71.5,29.89,SSE,157,0.0,-999.0,98,-99.99,,,0.00,Acu-Link.com,2013-07-08 04:23:00,
2013-07-08 00:38:00,72.0,71.4,29.89,South,180,1.7,-999.0,98,-99.99,,,0.00,Acu-Link.com,2013-07-08 04:38:00,
2013-07-08 00:54:00,71.6,71.0,29.89,East,90,3.2,-999.0,98,-99.99,,,0.00,Acu-Link.com,2013-07-08 04:54:00,
2013-07-08 01:09:00,71.4,70.8,29.90,South,180,0.0,-999.0,98,-99.99,,,0.00,Acu-Link.com,2013-07-08 05:09:00,
2013-07-08 01:24:00,71.2,70.6,29.89,SSW,202,0.0,-999.0,98,-99.99,,,0.00,Acu-Link.com,2013-07-08 05:24:00,
2013-07-08 01:39:00,71.2,70.6,29.89,South,180,0.0,-999.0,98,-99.99,,,0.00,Acu-Link.com,2013-07-08 05:39:00,
2013-07-08 01:55:00,71.2,70.6,29.88,SW,225,0.0,-999.0,98,-99.99,,,0.00,Acu-Link.com,2013-07-08 05:55:00,
2013-07-08 02:10:00,71.2,70.6,29.88,SSE,157,0.0,-999.0,98,-99.99,,,0.00,Acu-Link.com,2013-07-08 06:10:00,
2013-07-08 02:25:00,71.1,70.5,29.88,WSW,247,0.0,-999.0,98,-99.99,,,0.00,Acu-Link.com,2013-07-08 06:25:00,
2013-07-08 02:41:00,71.1,70.5,29.89,SW,225,0.0,-999.0,98,-99.99,,,0.00,Acu-Link.com,2013-07-08 06:41:00,
2013-07-08 02:56:00,70.9,70.3,29.89,SSW,202,0.0,-999.0,98,-99.99,,,0.00,Acu-Link.com,2013-07-08 06:56:00,
2013-07-08 03:11:00,70.9,70.3,29.89,SSW,202,1.1,-999.0,98,-99.99,,,0.00,Acu-Link.com,2013-07-08 07:11:00,
2013-07-08 03:26:00,70.9,70.3,29.89,SSW,202,0.0,-999.0,98,-99.99,,,0.00,Acu-Link.com,2013-07-08 07:26:00,
2013-07-08 03:42:00,70.5,69.9,29.91,South,180,0.0,-999.0,98,-99.99,,,0.00,Acu-Link.com,2013-07-08 07:42:00,
2013-07-08 03:57:00,70.3,69.7,29.91,ENE,67,0.0,-999.0,98,-99.99,,,0.00,Acu-Link.com,2013-07-08 07:57:00,
2013-07-08 04:13:00,70.3,69.7,29.90,ENE,67,0.0,-999.0,98,-99.99,,,0.00,Acu-Link.com,2013-07-08 08:13:00,
2013-07-08 04:28:00,70.2,69.6,29.89,ESE,112,0.0,-999.0,98,-99.99,,,0.00,Acu-Link.com,2013-07-08 08:28:00,
2013-07-08 04:43:00,69.8,69.2,29.90,SSW,202,0.0,-999.0,98,-99.99,,,0.00,Acu-Link.com,2013-07-08 08:43:00,
2013-07-08 04:58:00,69.4,68.8,29.90,SSW,202,0.0,-999.0,98,-99.99,,,0.00,Acu-Link.com,2013-07-08 08:58:00,
2013-07-08 05:13:00,69.1,68.5,29.91,SSW,202,0.0,-999.0,98,-99.99,,,0.00,Acu-Link.com,2013-07-08 09:13:00,
2013-07-08 05:28:00,69.3,68.7,29.91,SSW,202,0.0,-999.0,98,-99.99,,,0.00,Acu-Link.com,2013-07-08 09:28:00,
2013-07-08 05:43:00,69.4,68.8,29.92,SSW,202,0.0,-999.0,98,-99.99,,,0.00,Acu-Link.com,2013-07-08 09:43:00,
2013-07-08 05:59:00,69.8,69.2,29.92,SSE,157,0.0,-999.0,98,-99.99,,,0.00,Acu-Link.com,2013-07-08 09:59:00,
2013-07-08 06:14:00,70.2,69.6,29.92,SSE,157,0.0,-999.0,98,-99.99,,,0.00,Acu-Link.com,2013-07-08 10:14:00,
2013-07-08 06:29:00,70.3,69.7,29.93,SW,225,0.0,-999.0,98,-99.99,,,0.00,Acu-Link.com,2013-07-08 10:29:00,
2013-07-08 06:44:00,70.7,70.1,29.94,WSW,247,0.0,-999.0,98,-99.99,,,0.00,Acu-Link.com,2013-07-08 10:44:00,
2013-07-08 07:00:00,71.2,70.6,29.93,South,180,0.0,-999.0,98,-99.99,,,0.00,Acu-Link.com,2013-07-08 11:00:00,
2013-07-08 07:15:00,71.6,71.0,29.93,ESE,112,0.0,-999.0,98,-99.99,,,0.00,Acu-Link.com,2013-07-08 11:15:00,
2013-07-08 07:30:00,72.5,71.9,29.94,NE,45,0.0,-999.0,98,-99.99,,,0.00,Acu-Link.com,2013-07-08 11:30:00,
2013-07-08 07:45:00,72.7,72.1,29.93,WSW,247,0.0,-999.0,98,-99.99,,,0.00,Acu-Link.com,2013-07-08 11:45:00,
2013-07-08 08:01:00,73.0,72.4,29.93,ESE,112,0.0,-999.0,98,-99.99,,,0.00,Acu-Link.com,2013-07-08 12:01:00,
2013-07-08 08:16:00,73.2,72.6,29.94,SE,135,0.0,-999.0,98,-99.99,,,0.00,Acu-Link.com,2013-07-08 12:16:00,
2013-07-08 08:31:00,73.2,72.6,29.94,SW,225,0.0,-999.0,98,-99.99,,,0.00,Acu-Link.com,2013-07-08 12:31:00,
2013-07-08 08:47:00,73.2,72.6,29.95,West,270,0.0,-999.0,98,-99.99,,,0.00,Acu-Link.com,2013-07-08 12:47:00,
2013-07-08 09:02:00,74.7,74.1,29.95,SSW,202,0.0,-999.0,98,-99.99,,,0.00,Acu-Link.com,2013-07-08 13:02:00,
2013-07-08 09:17:00,76.3,75.7,29.93,South,180,1.1,-999.0,98,-99.99,,,0.00,Acu-Link.com,2013-07-08 13:17:00,
2013-07-08 09:33:00,77.2,75.3,29.93,SSE,157,0.0,-999.0,94,-99.99,,,0.00,Acu-Link.com,2013-07-08 13:33:00,
2013-07-08 09:48:00,78.6,76.1,29.93,South,180,1.1,-999.0,92,-99.99,,,0.00,Acu-Link.com,2013-07-08 13:48:00,
2013-07-08 10:03:00,79.0,75.5,29.93,West,270,1.1,-999.0,89,-99.99,,,0.00,Acu-Link.com,2013-07-08 14:03:00,
2013-07-08 10:19:00,78.6,75.1,29.95,East,90,5.3,-999.0,89,-99.99,,,0.00,Acu-Link.com,2013-07-08 14:19:00,
2013-07-08 10:34:00,76.3,75.7,29.95,NNE,22,1.1,-999.0,98,-99.99,,,0.00,Acu-Link.com,2013-07-08 14:34:00,
2013-07-08 10:49:00,78.1,76.2,29.95,SSE,157,1.7,-999.0,94,-99.99,,,0.00,Acu-Link.com,2013-07-08 14:49:00,
2013-07-08 11:04:00,77.5,74.7,29.95,West,270,1.1,-999.0,91,-99.99,,,0.00,Acu-Link.com,2013-07-08 15:04:00,
2013-07-08 11:19:00,80.1,75.9,29.94,SW,225,2.2,-999.0,87,-99.99,,,0.00,Acu-Link.com,2013-07-08 15:19:00,
2013-07-08 11:35:00,80.6,76.4,29.95,South,180,2.2,-999.0,87,-99.99,,,0.00,Acu-Link.com,2013-07-08 15:35:00,
2013-07-08 11:50:00,80.6,75.7,29.95,SSE,157,2.7,-999.0,85,-99.99,,,0.00,Acu-Link.com,2013-07-08 15:50:00,
2013-07-08 12:05:00,80.8,75.9,29.96,ENE,67,2.2,-999.0,85,-99.99,,,0.00,Acu-Link.com,2013-07-08 16:05:00,
2013-07-08 12:20:00,81.9,76.9,29.95,East,90,2.7,-999.0,85,-99.99,,,0.00,Acu-Link.com,2013-07-08 16:20:00,
2013-07-08 12:35:00,81.9,75.8,29.96,East,90,2.2,-999.0,82,-99.99,,,0.00,Acu-Link.com,2013-07-08 16:35:00,
2013-07-08 12:51:00,82.6,76.5,29.94,WSW,247,1.7,-999.0,82,-99.99,,,0.00,Acu-Link.com,2013-07-08 16:51:00,
2013-07-08 13:06:00,82.2,76.1,29.94,South,180,1.1,-999.0,82,-99.99,,,0.00,Acu-Link.com,2013-07-08 17:06:00,
2013-07-08 13:21:00,83.3,76.1,29.95,SSW,202,2.2,-999.0,79,-99.99,,,0.00,Acu-Link.com,2013-07-08 17:21:00,
2013-07-08 13:37:00,82.8,77.1,29.93,SSE,157,2.7,-999.0,83,-99.99,,,0.00,Acu-Link.com,2013-07-08 17:37:00,
2013-07-08 13:52:00,82.8,76.0,29.93,SE,135,3.2,-999.0,80,-99.99,,,0.00,Acu-Link.com,2013-07-08 17:52:00,
2013-07-08 14:07:00,82.8,77.1,29.94,WSW,247,1.1,-999.0,83,-99.99,,,0.00,Acu-Link.com,2013-07-08 18:07:00,
2013-07-08 14:53:00,83.1,75.9,29.92,South,180,2.7,-999.0,79,-99.99,,,0.00,Acu-Link.com,2013-07-08 18:53:00,
2013-07-08 15:08:00,84.6,76.2,29.92,SSE,157,2.7,-999.0,76,-99.99,,,0.00,Acu-Link.com,2013-07-08 19:08:00,
2013-07-08 15:39:00,84.7,75.9,29.90,SE,135,3.2,-999.0,75,-99.99,,,0.00,Acu-Link.com,2013-07-08 19:39:00,
2013-07-08 16:09:00,84.7,74.2,29.90,WSW,247,3.7,-999.0,71,-99.99,,,0.00,Acu-Link.com,2013-07-08 20:09:00,
2013-07-08 16:24:00,84.0,74.8,29.89,SW,225,3.2,-999.0,74,-99.99,,,0.00,Acu-Link.com,2013-07-08 20:24:00,
2013-07-08 16:40:00,83.7,74.5,29.88,West,270,2.2,-999.0,74,-99.99,,,0.00,Acu-Link.com,2013-07-08 20:40:00,
2013-07-08 17:41:00,81.3,72.6,29.89,SW,225,1.1,-999.0,75,-99.99,,,0.00,Acu-Link.com,2013-07-08 21:41:00,
2013-07-08 17:56:00,80.4,72.1,29.89,SW,225,2.7,-999.0,76,-99.99,,,0.00,Acu-Link.com,2013-07-08 21:56:00,
2013-07-08 18:12:00,81.7,73.0,29.91,WNW,292,0.0,-999.0,75,-99.99,,,0.00,Acu-Link.com,2013-07-08 22:12:00,
2013-07-08 19:13:00,78.8,73.2,29.92,West,270,0.0,-999.0,83,-99.99,,,0.00,Acu-Link.com,2013-07-08 23:13:00,
2013-07-08 19:44:00,78.8,73.5,29.90,SSE,157,0.0,-999.0,84,-99.99,,,0.00,Acu-Link.com,2013-07-08 23:44:00,
2013-07-08 19:59:00,78.8,73.2,29.90,NW,315,0.0,-999.0,83,-99.99,,,0.00,Acu-Link.com,2013-07-08 23:59:00,
2013-07-08 20:15:00,78.3,73.1,29.91,West,270,0.0,-999.0,84,-99.99,,,0.00,Acu-Link.com,2013-07-09 00:15:00,
2013-07-08 20:45:00,76.3,72.5,29.90,ESE,112,0.0,-999.0,88,-99.99,,,0.00,Acu-Link.com,2013-07-09 00:45:00,
2013-07-08 21:00:00,75.7,71.9,29.91,West,270,0.0,-999.0,88,-99.99,,,0.00,Acu-Link.com,2013-07-09 01:00:00,
2013-07-08 21:15:00,74.8,72.0,29.91,SE,135,0.0,-999.0,91,-99.99,,,0.00,Acu-Link.com,2013-07-09 01:15:00,
2013-07-08 22:01:00,73.2,71.7,29.93,SE,135,0.0,-999.0,95,-99.99,,,0.00,Acu-Link.com,2013-07-09 02:01:00,
2013-07-08 23:34:00,72.7,72.1,29.93,SSW,202,0.0,-999.0,98,-99.99,,,0.00,Acu-Link.com,2013-07-09 03:34:00,
2013-07-08 23:49:00,73.0,72.4,29.95,SSW,202,1.1,-999.0,98,-99.99,,,0.00,Acu-Link.com,2013-07-09 03:49:00,